This is the latest recevied weather packets stored in our database for station/object Riedlingn. If no packets are shown the sender has not sent any weather packets the latest 10 day(s).
| Time | Temp. | Humidity | Pressure | Rain* | Wind** | Luminosity | Snow |
|---|---|---|---|---|---|---|---|
| 1777707130 | 13.33° C | 58% | 1028.6 hPa | 0 mm | - | - | - |
| 1777705333 | 10.56° C | 69% | 1028.8 hPa | 0 mm | - | - | - |
| 1777703532 | 8.33° C | 78% | 1028.9 hPa | 0 mm | - | - | - |
| 1777701731 | 6.11° C | 84% | 1028.9 hPa | 0 mm | - | - | - |
| 1777699931 | 4.44° C | 86% | 1029.1 hPa | 0 mm | - | - | - |
| 1777698131 | 3.33° C | 88% | 1028.9 hPa | 0 mm | - | - | - |
| 1777696331 | 2.78° C | 87% | 1028.6 hPa | 0 mm | - | - | - |
| 1777694533 | 3.33° C | 86% | 1028.6 hPa | 0 mm | - | - | - |
| 1777692731 | 3.89° C | 84% | 1028.6 hPa | 0 mm | - | - | - |
| 1777690931 | 4.44° C | 82% | 1028.5 hPa | 0 mm | - | - | - |
| 1777689134 | 4.44° C | 80% | 1028.6 hPa | 0 mm | - | - | - |
| 1777687332 | 6.11° C | 76% | 1028.7 hPa | 0 mm | - | - | - |
| 1777685531 | 7.22° C | 74% | 1028.5 hPa | 0 mm | - | - | - |
| 1777683731 | 7.78° C | 72% | 1028.9 hPa | 0 mm | - | - | - |
| 1777681929 | 7.78° C | 71% | 1029.1 hPa | 0 mm | - | - | - |
| 1777680129 | 8.33° C | 69% | 1029.4 hPa | 0 mm | - | - | - |
| 1777678330 | 8.89° C | 68% | 1029.5 hPa | 0 mm | - | - | - |
| 1777676530 | 9.44° C | 66% | 1029.6 hPa | 0 mm | - | - | - |
| 1777674730 | 9.44° C | 67% | 1029.8 hPa | 0 mm | - | - | - |
| 1777671130 | 11.11° C | 62% | 1029.7 hPa | 0 mm | - | - | - |
| 1777669330 | 12.22° C | 58% | 1029.6 hPa | 0 mm | - | - | - |
| 1777667529 | 12.78° C | 55% | 1029.7 hPa | 0 mm | - | - | - |
| 1777665732 | 14.44° C | 50% | 1029.6 hPa | 0 mm | - | - | - |
| 1777663929 | 15.56° C | 46% | 1029.4 hPa | 0 mm | - | - | - |
| 1777662130 | 17.22° C | 39% | 1029.1 hPa | 0 mm | - | - | - |
* Rain since midnight (hover to see other rain measurements)
** Current wind speed in m/s (hover to see current wind gust speed)